Time;durP1;ratioP1;P1;durP2;ratioP2;P2;SDS_P1;SDS_P2;PMS_P1;PMS_P2;Temp;Humidity;BMP_temperature;BMP_pressure;BME280_temperature;BME280_humidity;BME280_pressure;Samples;Min_cycle;Max_cycle;Signal;HPM_P1;HPM_P2
2021/12/05 00:19:28;;;;;;;8.47;2.70;;;7.30;99.90;;;;;;10427655;28;20241;-78
2021/12/05 00:24:35;;;;;;;5.03;2.03;;;7.20;99.90;;;;;;10457539;28;20194;-78
2021/12/05 00:29:44;;;;;;;4.13;2.30;;;7.20;99.90;;;;;;10440068;28;20251;-79
2021/12/05 00:35:22;;;;;;;3.37;2.17;;;7.10;99.90;;;;;;10456692;28;20246;-78
2021/12/05 00:40:57;;;;;;;4.87;2.40;;;7.20;99.90;;;;;;10449004;28;20610;-79
2021/12/05 00:52:09;;;;;;;4.23;2.50;;;7.10;99.90;;;;;;10254254;28;20759;-77
2021/12/05 01:02:42;;;;;;;5.00;2.00;;;7.10;99.90;;;;;;10405163;28;20615;-79
2021/12/05 01:08:08;;;;;;;6.50;2.13;;;7.20;99.90;;;;;;10417655;28;20583;-78
2021/12/05 01:13:32;;;;;;;3.40;1.90;;;7.20;99.90;;;;;;10420264;28;20204;-78
2021/12/05 01:18:37;;;;;;;2.83;2.17;;;7.20;99.90;;;;;;10401843;28;20245;-78
2021/12/05 01:23:53;;;;;;;2.43;1.67;;;7.10;99.90;;;;;;10420378;28;20208;-78
2021/12/05 01:29:24;;;;;;;3.50;2.00;;;7.10;99.90;;;;;;10402087;28;20219;-78
2021/12/05 01:34:38;;;;;;;3.80;2.10;;;6.90;99.90;;;;;;10420535;28;20648;-78
2021/12/05 01:39:58;;;;;;;2.23;1.90;;;6.80;99.90;;;;;;10420331;28;20233;-78
2021/12/05 02:39:13;;;;;;;3.80;2.03;;;6.40;99.90;;;;;;10475220;22;20235;-82
2021/12/05 02:44:21;;;;;;;3.90;2.43;;;6.40;99.90;;;;;;10447349;28;20236;-82
2021/12/05 02:49:24;;;;;;;2.37;2.17;;;6.40;99.90;;;;;;10459235;28;20304;-83
2021/12/05 02:54:35;;;;;;;2.17;2.00;;;6.40;99.90;;;;;;10465073;28;20694;-82
2021/12/05 02:59:46;;;;;;;2.67;1.97;;;6.40;99.90;;;;;;10468079;28;20226;-82
2021/12/05 03:04:52;;;;;;;2.30;2.10;;;6.40;99.90;;;;;;10468569;28;20223;-82
2021/12/05 03:09:55;;;;;;;3.20;1.90;;;6.50;99.90;;;;;;10475298;28;20225;-82
2021/12/05 03:15:03;;;;;;;2.23;1.90;;;6.50;99.90;;;;;;10456712;28;20240;-82
2021/12/05 03:20:06;;;;;;;4.47;2.00;;;6.60;99.90;;;;;;10485914;28;20216;-82
2021/12/05 03:25:11;;;;;;;3.97;1.93;;;6.60;99.90;;;;;;10457946;28;20604;-82
2021/12/05 03:30:19;;;;;;;2.33;2.13;;;6.60;99.90;;;;;;10461511;28;20233;-82
2021/12/05 03:35:26;;;;;;;4.27;2.53;;;6.60;99.90;;;;;;10475148;28;20216;-82
2021/12/05 03:40:36;;;;;;;2.30;1.93;;;6.60;99.90;;;;;;10471578;28;20228;-82
2021/12/05 03:45:45;;;;;;;3.17;2.30;;;6.60;99.90;;;;;;10462628;28;20226;-81
2021/12/05 03:50:49;;;;;;;2.40;2.20;;;6.50;99.90;;;;;;10473173;28;20228;-83
2021/12/05 03:55:54;;;;;;;2.93;2.33;;;6.50;99.90;;;;;;10458820;28;20257;-82
2021/12/05 04:00:59;;;;;;;2.17;2.07;;;6.50;99.90;;;;;;10489433;28;20286;-82
2021/12/05 04:06:04;;;;;;;3.80;2.43;;;6.50;99.90;;;;;;10475611;28;20232;-82
2021/12/05 04:11:15;;;;;;;3.10;2.30;;;6.50;99.90;;;;;;10460408;28;20301;-82
2021/12/05 04:16:19;;;;;;;3.93;2.30;;;6.50;99.90;;;;;;10459598;28;20293;-82
2021/12/05 04:21:21;;;;;;;3.50;2.27;;;6.40;99.90;;;;;;10460956;28;20665;-81
2021/12/05 04:26:26;;;;;;;3.57;2.20;;;6.40;99.90;;;;;;10454078;28;20196;-82
2021/12/05 04:31:28;;;;;;;2.20;2.03;;;6.40;99.90;;;;;;10460686;28;20227;-82
2021/12/05 04:36:30;;;;;;;2.60;2.00;;;6.30;99.90;;;;;;10472772;28;20208;-83
2021/12/05 04:41:35;;;;;;;2.13;1.93;;;6.40;99.90;;;;;;10470694;28;20232;-82
2021/12/05 04:46:38;;;;;;;4.73;2.40;;;6.40;99.90;;;;;;10489506;28;20197;-83
2021/12/05 04:51:44;;;;;;;2.53;2.33;;;6.50;99.90;;;;;;10453647;28;20255;-82
2021/12/05 04:56:53;;;;;;;5.93;2.47;;;6.50;99.90;;;;;;10461151;28;20670;-81
2021/12/05 05:02:06;;;;;;;2.33;2.10;;;6.60;99.90;;;;;;10477610;28;20282;-81
2021/12/05 05:07:15;;;;;;;4.83;2.13;;;6.50;99.90;;;;;;10492672;28;20219;-82
2021/12/05 05:12:19;;;;;;;4.00;2.30;;;6.50;99.90;;;;;;10477358;28;20615;-82
2021/12/05 05:17:21;;;;;;;4.77;1.90;;;6.50;99.90;;;;;;10470131;28;20216;-81
2021/12/05 05:22:34;;;;;;;4.90;2.00;;;6.50;99.90;;;;;;10477374;28;20205;-82
2021/12/05 05:44:03;;;;;;;5.40;2.33;;;6.00;99.90;;;;;;10479249;28;20196;-82
2021/12/05 05:49:14;;;;;;;5.67;2.50;;;5.90;99.90;;;;;;10462245;28;20401;-82
2021/12/05 05:54:18;;;;;;;2.90;2.37;;;5.90;99.90;;;;;;10467978;28;20652;-82
2021/12/05 05:59:25;;;;;;;2.50;2.20;;;5.80;99.90;;;;;;10468095;28;20228;-82
2021/12/05 06:04:27;;;;;;;4.07;1.90;;;5.80;99.90;;;;;;10455492;28;20299;-81
2021/12/05 06:09:29;;;;;;;3.83;1.90;;;5.80;99.90;;;;;;10482618;28;20232;-82
2021/12/05 06:14:33;;;;;;;2.50;1.80;;;5.80;99.90;;;;;;10478037;28;20220;-82
2021/12/05 06:19:35;;;;;;;2.40;2.00;;;5.80;99.90;;;;;;10484048;28;20759;-82
2021/12/05 06:24:40;;;;;;;2.00;1.90;;;5.80;99.90;;;;;;10485324;28;20200;-82
2021/12/05 06:29:50;;;;;;;3.10;2.60;;;5.80;99.90;;;;;;10482404;28;20238;-81
2021/12/05 06:40:33;;;;;;;4.83;1.70;;;5.80;99.90;;;;;;10474627;28;20228;-82
2021/12/05 06:50:56;;;;;;;2.70;2.37;;;5.80;99.90;;;;;;10481691;28;20294;-82
2021/12/05 06:55:58;;;;;;;2.50;2.30;;;5.70;99.90;;;;;;10500634;28;20296;-82
2021/12/05 07:01:04;;;;;;;3.80;1.80;;;5.70;99.90;;;;;;10482772;28;20244;-82
2021/12/05 07:06:09;;;;;;;2.50;1.80;;;5.60;99.90;;;;;;10465042;28;20296;-82
2021/12/05 07:11:17;;;;;;;2.80;2.33;;;5.60;99.90;;;;;;10458668;28;20610;-82
2021/12/05 07:16:25;;;;;;;2.30;2.10;;;5.60;99.90;;;;;;10481409;28;20208;-81
2021/12/05 07:21:38;;;;;;;3.73;2.97;;;5.70;99.90;;;;;;10469935;28;20761;-81
2021/12/05 07:27:08;;;;;;;1.87;1.77;;;5.80;99.90;;;;;;10458085;28;20203;-82
2021/12/05 07:42:51;;;;;;;2.57;2.37;;;5.70;99.90;;;;;;10463940;28;20204;-82
2021/12/05 07:47:56;;;;;;;2.10;1.90;;;5.80;99.90;;;;;;10475182;28;20220;-82
2021/12/05 07:53:05;;;;;;;2.60;1.80;;;5.80;99.90;;;;;;10455837;28;20238;-82
2021/12/05 07:58:21;;;;;;;2.93;2.20;;;5.80;99.90;;;;;;10492343;28;20564;-82
2021/12/05 08:14:29;;;;;;;4.30;2.37;;;5.80;99.90;;;;;;10479763;28;20285;-82
2021/12/05 08:19:32;;;;;;;2.50;2.23;;;5.80;99.90;;;;;;10485649;28;20287;-81
2021/12/05 08:24:37;;;;;;;2.67;2.47;;;5.80;99.90;;;;;;10481672;28;20258;-81
2021/12/05 08:29:44;;;;;;;2.27;2.10;;;5.80;99.90;;;;;;10469349;28;20220;-82
2021/12/05 08:35:05;;;;;;;3.67;2.00;;;5.80;99.90;;;;;;10462378;28;20201;-82
2021/12/05 08:45:57;;;;;;;3.27;1.80;;;5.90;99.90;;;;;;10467542;28;20208;-78
2021/12/05 09:29:06;;;;;;;3.10;2.13;;;6.60;99.90;;;;;;10482062;28;20216;-79
2021/12/05 09:40:06;;;;;;;2.17;2.00;;;6.80;99.90;;;;;;10481640;28;20319;-79
2021/12/05 10:06:52;;;;;;;2.40;2.10;;;7.40;99.90;;;;;;10499095;28;20196;-79
2021/12/05 10:12:12;;;;;;;2.13;1.93;;;7.50;99.90;;;;;;10477194;28;20312;-79
2021/12/05 10:38:40;;;;;;;3.67;1.70;;;7.50;99.90;;;;;;10482964;28;20224;-79
2021/12/05 10:43:46;;;;;;;2.27;2.03;;;7.60;99.90;;;;;;10489626;28;20208;-78
2021/12/05 10:48:52;;;;;;;5.60;3.23;;;7.60;99.90;;;;;;10486515;28;20227;-79
2021/12/05 10:53:56;;;;;;;2.60;2.40;;;7.50;99.90;;;;;;10488683;28;20575;-79
2021/12/05 10:59:03;;;;;;;4.23;1.77;;;7.50;99.90;;;;;;10488767;28;20228;-79
2021/12/05 11:04:09;;;;;;;3.30;1.80;;;7.50;99.90;;;;;;10473027;28;20228;-79
2021/12/05 11:09:13;;;;;;;1.87;1.77;;;7.60;99.90;;;;;;10488536;28;20255;-79
2021/12/05 11:14:20;;;;;;;3.73;1.60;;;7.50;99.90;;;;;;10507002;28;20201;-79
2021/12/05 11:19:30;;;;;;;1.53;1.47;;;7.60;99.90;;;;;;10470801;28;20235;-78
2021/12/05 11:24:35;;;;;;;1.90;1.80;;;7.50;99.90;;;;;;10502967;28;20197;-78
2021/12/05 11:30:03;;;;;;;2.03;1.70;;;7.60;99.90;;;;;;10486962;28;20225;-80
2021/12/05 11:35:37;;;;;;;2.20;2.00;;;7.60;99.90;;;;;;10504853;28;20313;-79
2021/12/05 11:40:53;;;;;;;2.60;1.90;;;7.60;99.90;;;;;;10512877;28;20228;-78
2021/12/05 11:46:00;;;;;;;2.33;2.10;;;7.60;99.90;;;;;;10502485;28;20228;-79
2021/12/05 11:51:18;;;;;;;2.30;1.83;;;7.60;99.90;;;;;;10483154;28;20303;-79
2021/12/05 11:56:23;;;;;;;1.87;1.50;;;7.60;99.90;;;;;;10483094;28;20201;-78
2021/12/05 12:01:35;;;;;;;2.13;2.00;;;7.70;99.90;;;;;;10483084;28;20274;-78
2021/12/05 12:06:38;;;;;;;2.30;2.20;;;7.90;99.90;;;;;;10483154;28;20296;-79
2021/12/05 12:11:40;;;;;;;3.93;2.00;;;7.90;99.90;;;;;;10500703;28;20251;-78
2021/12/05 12:16:46;;;;;;;2.77;2.57;;;8.00;99.90;;;;;;10482678;28;20306;-78
2021/12/05 12:21:51;;;;;;;2.97;2.23;;;8.10;99.90;;;;;;10482272;28;20228;-79
2021/12/05 12:26:54;;;;;;;2.93;1.97;;;8.20;99.90;;;;;;10500302;28;20197;-78
2021/12/05 12:32:07;;;;;;;1.80;1.70;;;8.30;99.90;;;;;;10480834;28;20228;-79
2021/12/05 12:37:11;;;;;;;6.13;3.03;;;8.30;99.90;;;;;;10499813;28;20216;-78
2021/12/05 12:42:19;;;;;;;3.57;2.13;;;8.30;99.90;;;;;;10479818;28;20236;-79
2021/12/05 12:47:30;;;;;;;2.03;1.93;;;8.30;99.90;;;;;;10498244;28;20262;-78
2021/12/05 12:52:32;;;;;;;2.07;1.73;;;8.20;99.90;;;;;;10480232;28;20299;-79
2021/12/05 12:57:41;;;;;;;1.30;1.20;;;8.20;99.90;;;;;;10498750;28;20223;-79
2021/12/05 13:02:57;;;;;;;1.40;1.40;;;8.20;99.90;;;;;;10499987;28;20693;-79
2021/12/05 13:13:29;;;;;;;2.40;2.20;;;8.10;99.90;;;;;;10500168;28;20723;-77
2021/12/05 13:18:36;;;;;;;2.10;2.00;;;8.00;99.90;;;;;;10463715;28;20259;-79
2021/12/05 13:23:41;;;;;;;1.80;1.70;;;8.00;99.90;;;;;;10466878;28;20200;-79
2021/12/05 13:28:46;;;;;;;1.40;1.40;;;8.00;99.90;;;;;;10483499;28;20232;-79
2021/12/05 13:33:49;;;;;;;2.07;1.93;;;7.90;99.90;;;;;;10484700;28;20243;-79
2021/12/05 13:38:51;;;;;;;2.00;1.90;;;7.90;99.90;;;;;;10501010;28;20230;-79
2021/12/05 13:43:56;;;;;;;2.00;1.90;;;7.80;99.90;;;;;;10502153;28;20197;-79
2021/12/05 13:49:00;;;;;;;2.90;2.70;;;7.80;99.90;;;;;;10483880;28;20715;-79
2021/12/05 13:54:04;;;;;;;1.90;1.80;;;7.80;99.90;;;;;;10467659;28;20219;-79
2021/12/05 13:59:07;;;;;;;1.43;1.40;;;7.80;99.90;;;;;;10483551;28;20224;-79
2021/12/05 14:04:27;;;;;;;1.50;1.40;;;7.80;99.90;;;;;;10504690;28;20614;-79
2021/12/05 14:09:34;;;;;;;3.73;3.43;;;7.70;99.90;;;;;;10510935;28;20592;-79
2021/12/05 14:14:40;;;;;;;2.13;1.93;;;7.70;99.90;;;;;;10512710;28;20208;-79
2021/12/05 14:19:45;;;;;;;2.07;1.93;;;7.70;99.90;;;;;;10512206;28;20798;-79
2021/12/05 14:24:51;;;;;;;2.13;2.03;;;7.60;99.90;;;;;;10496884;28;20250;-79
2021/12/05 14:29:54;;;;;;;2.73;2.53;;;7.50;99.90;;;;;;10491005;28;20227;-79
2021/12/05 14:35:02;;;;;;;2.70;2.50;;;7.50;99.90;;;;;;10488881;28;20204;-79
2021/12/05 14:40:07;;;;;;;2.87;2.53;;;7.40;99.90;;;;;;10471816;28;20227;-79
2021/12/05 14:45:15;;;;;;;4.63;4.00;;;7.40;99.90;;;;;;10487647;28;20230;-79
2021/12/05 14:50:21;;;;;;;4.80;3.97;;;7.40;99.90;;;;;;10505390;28;20303;-79
2021/12/05 14:55:27;;;;;;;4.53;3.63;;;7.20;99.90;;;;;;10486105;28;20204;-78
2021/12/05 15:00:32;;;;;;;4.90;3.87;;;7.20;99.90;;;;;;10485347;28;20221;-78
2021/12/05 15:05:37;;;;;;;2.83;2.63;;;7.20;99.90;;;;;;10503594;28;20644;-78
2021/12/05 15:10:41;;;;;;;4.17;3.87;;;7.30;99.90;;;;;;10503166;28;20220;-79
2021/12/05 15:15:43;;;;;;;3.20;3.00;;;7.30;99.90;;;;;;10482586;28;20204;-78
2021/12/05 15:20:48;;;;;;;4.63;4.37;;;7.30;99.90;;;;;;10501151;28;20324;-78
2021/12/05 15:25:50;;;;;;;3.27;3.07;;;7.30;99.90;;;;;;10503027;28;20211;-79
2021/12/05 15:30:53;;;;;;;2.90;2.70;;;7.40;99.90;;;;;;10484311;28;20212;-78
2021/12/05 15:35:58;;;;;;;3.00;2.90;;;7.40;99.90;;;;;;10502817;28;20222;-78
2021/12/05 15:41:04;;;;;;;3.00;2.80;;;7.40;99.90;;;;;;10501079;28;20220;-78
2021/12/05 15:46:11;;;;;;;4.90;3.00;;;7.40;99.90;;;;;;10501086;28;20203;-78
2021/12/05 15:51:14;;;;;;;4.97;3.90;;;7.30;99.90;;;;;;10483240;28;20876;-78
2021/12/05 15:56:18;;;;;;;3.77;3.47;;;7.20;99.90;;;;;;10501195;28;20192;-78
2021/12/05 16:01:24;;;;;;;3.83;3.53;;;7.10;99.90;;;;;;10500720;28;20635;-78
2021/12/05 16:06:34;;;;;;;3.80;3.50;;;7.10;99.90;;;;;;10484227;28;20566;-77
2021/12/05 16:11:36;;;;;;;3.97;3.60;;;7.00;99.90;;;;;;10482141;28;20295;-78
2021/12/05 16:16:39;;;;;;;4.50;4.10;;;7.00;99.90;;;;;;10500837;28;20752;-78
2021/12/05 16:21:42;;;;;;;5.67;4.80;;;7.00;99.90;;;;;;10497844;28;20260;-78
2021/12/05 16:26:47;;;;;;;8.67;7.87;;;6.90;99.90;;;;;;10480461;28;20288;-78
2021/12/05 16:31:53;;;;;;;4.83;4.53;;;6.90;99.90;;;;;;10503402;28;20719;-79
2021/12/05 16:36:59;;;;;;;6.00;5.40;;;6.90;99.90;;;;;;10505510;28;20207;-78
2021/12/05 16:42:03;;;;;;;5.80;5.20;;;6.80;99.90;;;;;;10503932;28;20234;-79
2021/12/05 16:47:12;;;;;;;4.43;4.03;;;6.80;99.90;;;;;;10498013;28;20193;-79
2021/12/05 16:52:20;;;;;;;4.43;4.13;;;6.80;99.90;;;;;;10505621;28;20700;-79
2021/12/05 16:57:28;;;;;;;14.17;12.87;;;6.70;99.90;;;;;;10487285;28;20196;-79
2021/12/05 17:02:32;;;;;;;9.60;6.90;;;6.80;99.90;;;;;;10497145;28;20310;-78
2021/12/05 17:07:43;;;;;;;13.53;11.33;;;6.70;99.90;;;;;;10498281;28;20223;-79
2021/12/05 17:12:45;;;;;;;9.00;8.20;;;6.80;99.90;;;;;;10469442;28;20299;-78
2021/12/05 17:17:51;;;;;;;8.53;7.67;;;6.70;99.90;;;;;;10503496;28;20292;-78
2021/12/05 17:23:00;;;;;;;8.17;7.20;;;6.70;99.90;;;;;;10485301;28;20200;-79
2021/12/05 17:28:05;;;;;;;6.47;5.97;;;6.80;99.90;;;;;;10485467;28;20234;-79
2021/12/05 17:33:07;;;;;;;7.07;6.50;;;6.70;99.90;;;;;;10478688;28;20247;-80
2021/12/05 17:38:11;;;;;;;8.53;7.73;;;6.60;99.90;;;;;;10485370;28;20242;-79
2021/12/05 17:43:13;;;;;;;6.23;5.67;;;6.50;99.90;;;;;;10502100;28;20259;-80
2021/12/05 17:48:15;;;;;;;7.10;6.50;;;6.50;99.90;;;;;;10491407;28;20217;-80
2021/12/05 17:53:19;;;;;;;6.23;5.63;;;6.50;99.90;;;;;;10506557;28;20295;-80
2021/12/05 17:58:34;;;;;;;5.43;5.03;;;6.40;99.90;;;;;;10489617;28;20251;-80
2021/12/05 18:03:37;;;;;;;6.23;5.63;;;6.40;99.90;;;;;;10486937;28;20288;-79
2021/12/05 18:08:41;;;;;;;25.80;21.63;;;6.30;99.90;;;;;;10478513;28;20270;-80
2021/12/05 18:13:47;;;;;;;16.47;15.10;;;6.20;99.90;;;;;;10476878;28;20208;-81
2021/12/05 18:18:49;;;;;;;7.27;6.50;;;6.10;99.90;;;;;;10476179;28;20224;-80
2021/12/05 18:23:52;;;;;;;5.73;5.23;;;6.10;99.90;;;;;;10453626;28;20236;-80
2021/12/05 18:28:55;;;;;;;7.20;6.60;;;6.00;99.90;;;;;;10471651;28;20661;-81
2021/12/05 18:34:03;;;;;;;7.90;7.20;;;6.00;99.90;;;;;;10472831;28;20579;-82
2021/12/05 18:39:10;;;;;;;11.03;9.93;;;6.00;99.90;;;;;;10479347;28;20322;-82
2021/12/05 18:44:17;;;;;;;12.53;11.33;;;5.90;99.90;;;;;;10487722;28;20200;-82
2021/12/05 18:49:19;;;;;;;12.40;11.10;;;5.90;99.90;;;;;;10468549;28;20208;-79
2021/12/05 18:54:23;;;;;;;11.40;10.40;;;5.90;99.90;;;;;;10487084;28;20672;-79
2021/12/05 18:59:26;;;;;;;11.43;10.30;;;5.90;99.90;;;;;;10499143;28;20233;-80
2021/12/05 19:04:37;;;;;;;8.93;7.57;;;5.90;99.90;;;;;;10505658;28;20200;-81
2021/12/05 19:15:01;;;;;;;6.73;6.10;;;5.90;99.90;;;;;;10477096;28;20214;-80
2021/12/05 19:20:10;;;;;;;7.33;6.73;;;5.90;99.90;;;;;;10458204;28;20216;-81
2021/12/05 19:25:16;;;;;;;9.50;8.07;;;6.00;99.90;;;;;;10496833;28;20783;-80
2021/12/05 19:30:21;;;;;;;8.33;7.53;;;6.00;99.90;;;;;;10468374;28;20720;-79
2021/12/05 19:35:24;;;;;;;9.47;8.57;;;6.10;99.90;;;;;;10467861;28;20211;-80
2021/12/05 19:40:59;;;;;;;11.27;9.00;;;6.20;99.90;;;;;;10465064;28;20232;-79
2021/12/05 19:46:05;;;;;;;10.10;9.20;;;6.30;99.90;;;;;;10474379;28;20202;-78
2021/12/05 19:51:14;;;;;;;8.20;7.50;;;6.30;99.90;;;;;;10484110;28;20231;-79
2021/12/05 19:56:53;;;;;;;6.63;6.13;;;6.40;99.90;;;;;;10505280;28;20197;-78
2021/12/05 20:01:58;;;;;;;9.87;8.10;;;6.30;99.90;;;;;;10482146;28;20246;-78
2021/12/05 20:07:11;;;;;;;11.40;9.20;;;6.30;99.90;;;;;;10463899;28;20200;-79
2021/12/05 20:12:20;;;;;;;10.00;7.93;;;6.30;99.90;;;;;;10480827;28;20624;-78
2021/12/05 20:17:32;;;;;;;7.30;6.70;;;6.30;99.90;;;;;;10475551;28;20208;-79
2021/12/05 20:22:47;;;;;;;7.43;6.70;;;6.40;99.90;;;;;;10448368;28;20682;-78
2021/12/05 20:27:51;;;;;;;10.30;9.37;;;6.40;99.90;;;;;;10468096;28;20195;-79
2021/12/05 20:32:57;;;;;;;12.57;10.90;;;6.40;99.90;;;;;;10458440;28;20572;-80
2021/12/05 20:43:08;;;;;;;9.20;8.37;;;6.40;99.90;;;;;;10402427;28;20208;-77
2021/12/05 20:48:10;;;;;;;9.17;7.90;;;6.40;99.90;;;;;;10430261;28;20217;-78
2021/12/05 20:53:17;;;;;;;8.43;7.63;;;6.40;99.90;;;;;;10380534;28;20205;-78
2021/12/05 20:58:21;;;;;;;8.67;8.00;;;6.40;99.90;;;;;;10398552;28;20225;-78
2021/12/05 21:03:23;;;;;;;10.60;9.60;;;6.40;99.90;;;;;;10416883;28;20210;-80
2021/12/05 21:08:30;;;;;;;13.57;12.27;;;6.40;99.90;;;;;;10417320;28;20245;-78
2021/12/05 21:13:37;;;;;;;13.07;11.97;;;6.40;99.90;;;;;;10415003;28;20200;-77
2021/12/05 21:18:43;;;;;;;11.40;10.40;;;6.50;99.90;;;;;;10412591;28;20232;-78
2021/12/05 21:23:46;;;;;;;10.83;9.27;;;6.50;99.90;;;;;;10399411;28;20739;-78
2021/12/05 21:28:50;;;;;;;8.03;7.23;;;6.50;99.90;;;;;;10382301;28;20236;-78
2021/12/05 21:33:53;;;;;;;8.00;7.20;;;6.50;99.90;;;;;;10415708;28;20890;-78
2021/12/05 21:38:55;;;;;;;8.03;7.33;;;6.40;99.90;;;;;;10417009;28;20229;-78
2021/12/05 21:43:59;;;;;;;8.33;7.57;;;6.40;99.90;;;;;;10402960;28;20289;-77
2021/12/05 21:49:01;;;;;;;9.57;8.67;;;6.40;99.90;;;;;;10380062;28;20309;-78
2021/12/05 21:54:04;;;;;;;9.40;8.43;;;6.40;99.90;;;;;;10397607;28;20693;-78
2021/12/05 21:59:08;;;;;;;9.03;8.20;;;6.40;99.90;;;;;;10381553;28;20222;-77
2021/12/05 22:04:10;;;;;;;8.27;7.57;;;6.30;99.90;;;;;;10413732;28;20202;-80
2021/12/05 22:09:13;;;;;;;8.43;7.53;;;6.30;99.90;;;;;;10380421;28;20245;-78
2021/12/05 22:14:17;;;;;;;8.27;7.57;;;6.30;99.90;;;;;;10396815;28;20212;-78
2021/12/05 22:19:19;;;;;;;7.53;6.83;;;6.40;99.90;;;;;;10415791;28;20210;-78
2021/12/05 22:24:23;;;;;;;7.27;6.57;;;6.40;99.90;;;;;;10413682;28;20197;-78
2021/12/05 22:29:27;;;;;;;7.10;6.23;;;6.40;99.90;;;;;;10420758;28;20381;-78
2021/12/05 22:34:32;;;;;;;11.83;10.70;;;6.40;99.90;;;;;;10420957;28;20507;-78
2021/12/05 22:39:34;;;;;;;8.13;7.33;;;6.30;99.90;;;;;;10402976;28;20240;-78
2021/12/05 22:44:40;;;;;;;6.40;5.90;;;6.30;99.90;;;;;;10421807;28;20206;-78
2021/12/05 22:49:44;;;;;;;6.13;5.63;;;6.30;99.90;;;;;;10412423;28;20207;-78
2021/12/05 22:54:47;;;;;;;5.30;4.83;;;6.20;99.90;;;;;;10391964;28;20199;-78
2021/12/05 22:59:51;;;;;;;6.23;5.60;;;6.20;99.90;;;;;;10396840;28;20221;-78
2021/12/05 23:04:56;;;;;;;5.80;5.30;;;6.20;99.90;;;;;;10401863;28;20214;-78
2021/12/05 23:09:58;;;;;;;4.77;4.37;;;6.20;99.90;;;;;;10404605;28;20573;-78
2021/12/05 23:15:02;;;;;;;6.07;5.03;;;6.10;99.90;;;;;;10392114;28;20281;-78
2021/12/05 23:20:05;;;;;;;4.40;4.10;;;6.10;99.90;;;;;;10390094;28;20234;-77
2021/12/05 23:25:10;;;;;;;4.77;4.33;;;6.10;99.90;;;;;;10391543;28;20678;-78
2021/12/05 23:30:18;;;;;;;5.10;4.20;;;6.10;99.90;;;;;;10409763;28;20218;-79
2021/12/05 23:35:22;;;;;;;5.47;4.10;;;6.00;99.90;;;;;;10414867;28;20649;-78
2021/12/05 23:40:24;;;;;;;3.33;3.13;;;6.00;99.90;;;;;;10403148;28;20748;-78
2021/12/05 23:45:28;;;;;;;3.70;3.40;;;5.90;99.90;;;;;;10388570;28;20646;-78
2021/12/05 23:50:35;;;;;;;4.90;3.63;;;5.90;99.90;;;;;;10423049;28;20222;-78
2021/12/05 23:55:39;;;;;;;4.73;4.00;;;5.90;99.90;;;;;;10406138;28;20558;-77
